sensor_id;sensor_type;location;lat;lon;timestamp;P1;durP1;ratioP1;P2;durP2;ratioP2
75209;SDS011;63796;53.136;14.882;2024-02-28T00:02:18;26.00;;;10.20;;
75209;SDS011;63796;53.136;14.882;2024-02-28T00:04:45;22.10;;;9.30;;
75209;SDS011;63796;53.136;14.882;2024-02-28T00:07:12;25.40;;;9.20;;
75209;SDS011;63796;53.136;14.882;2024-02-28T00:09:39;24.50;;;9.50;;
75209;SDS011;63796;53.136;14.882;2024-02-28T00:12:06;23.60;;;9.30;;
75209;SDS011;63796;53.136;14.882;2024-02-28T00:14:34;25.40;;;8.90;;
75209;SDS011;63796;53.136;14.882;2024-02-28T00:17:01;24.30;;;9.30;;
75209;SDS011;63796;53.136;14.882;2024-02-28T00:19:28;21.00;;;8.80;;
75209;SDS011;63796;53.136;14.882;2024-02-28T00:21:54;22.60;;;9.00;;
75209;SDS011;63796;53.136;14.882;2024-02-28T00:24:22;25.20;;;8.80;;
75209;SDS011;63796;53.136;14.882;2024-02-28T00:26:49;21.00;;;8.80;;
75209;SDS011;63796;53.136;14.882;2024-02-28T00:29:16;27.70;;;9.50;;
75209;SDS011;63796;53.136;14.882;2024-02-28T00:31:43;21.90;;;9.50;;
75209;SDS011;63796;53.136;14.882;2024-02-28T00:34:10;22.90;;;8.80;;
75209;SDS011;63796;53.136;14.882;2024-02-28T00:36:37;21.90;;;9.00;;
75209;SDS011;63796;53.136;14.882;2024-02-28T00:39:21;22.20;;;8.20;;
75209;SDS011;63796;53.136;14.882;2024-02-28T00:41:48;24.00;;;9.90;;
75209;SDS011;63796;53.136;14.882;2024-02-28T00:44:15;25.10;;;10.10;;
75209;SDS011;63796;53.136;14.882;2024-02-28T00:46:42;18.80;;;7.70;;
75209;SDS011;63796;53.136;14.882;2024-02-28T00:49:09;19.30;;;7.80;;
75209;SDS011;63796;53.136;14.882;2024-02-28T00:51:36;23.80;;;8.10;;
75209;SDS011;63796;53.136;14.882;2024-02-28T00:54:04;22.80;;;9.00;;
75209;SDS011;63796;53.136;14.882;2024-02-28T00:56:31;25.90;;;10.00;;
75209;SDS011;63796;53.136;14.882;2024-02-28T00:58:58;26.90;;;9.90;;
75209;SDS011;63796;53.136;14.882;2024-02-28T01:01:25;23.80;;;9.30;;
75209;SDS011;63796;53.136;14.882;2024-02-28T01:03:52;26.90;;;8.70;;
75209;SDS011;63796;53.136;14.882;2024-02-28T01:06:19;26.40;;;8.80;;
75209;SDS011;63796;53.136;14.882;2024-02-28T01:08:46;26.30;;;10.20;;
75209;SDS011;63796;53.136;14.882;2024-02-28T01:11:13;24.10;;;8.90;;
75209;SDS011;63796;53.136;14.882;2024-02-28T01:13:40;25.00;;;9.20;;
75209;SDS011;63796;53.136;14.882;2024-02-28T01:16:07;32.00;;;10.10;;
75209;SDS011;63796;53.136;14.882;2024-02-28T01:18:34;26.80;;;9.10;;
75209;SDS011;63796;53.136;14.882;2024-02-28T01:21:01;28.00;;;9.50;;
75209;SDS011;63796;53.136;14.882;2024-02-28T01:23:30;23.80;;;9.60;;
75209;SDS011;63796;53.136;14.882;2024-02-28T01:25:58;25.50;;;9.70;;
75209;SDS011;63796;53.136;14.882;2024-02-28T01:28:25;35.70;;;10.00;;
75209;SDS011;63796;53.136;14.882;2024-02-28T01:30:52;31.70;;;10.60;;
75209;SDS011;63796;53.136;14.882;2024-02-28T01:33:19;28.90;;;10.00;;
75209;SDS011;63796;53.136;14.882;2024-02-28T01:35:46;28.60;;;10.20;;
75209;SDS011;63796;53.136;14.882;2024-02-28T01:38:13;25.90;;;10.30;;
75209;SDS011;63796;53.136;14.882;2024-02-28T01:40:45;31.60;;;10.40;;
75209;SDS011;63796;53.136;14.882;2024-02-28T01:43:12;27.60;;;9.90;;
75209;SDS011;63796;53.136;14.882;2024-02-28T01:45:39;31.70;;;11.40;;
75209;SDS011;63796;53.136;14.882;2024-02-28T01:48:11;24.90;;;10.00;;
75209;SDS011;63796;53.136;14.882;2024-02-28T01:50:39;31.50;;;10.70;;
75209;SDS011;63796;53.136;14.882;2024-02-28T01:53:08;26.20;;;9.60;;
75209;SDS011;63796;53.136;14.882;2024-02-28T01:55:35;29.40;;;9.70;;
75209;SDS011;63796;53.136;14.882;2024-02-28T01:58:03;29.20;;;9.70;;
75209;SDS011;63796;53.136;14.882;2024-02-28T02:00:34;29.50;;;10.80;;
75209;SDS011;63796;53.136;14.882;2024-02-28T02:03:01;30.60;;;10.70;;
75209;SDS011;63796;53.136;14.882;2024-02-28T02:05:29;32.70;;;10.60;;
75209;SDS011;63796;53.136;14.882;2024-02-28T02:07:57;26.90;;;9.80;;
75209;SDS011;63796;53.136;14.882;2024-02-28T02:10:49;33.30;;;10.00;;
75209;SDS011;63796;53.136;14.882;2024-02-28T02:13:16;25.30;;;9.60;;
75209;SDS011;63796;53.136;14.882;2024-02-28T02:15:43;27.60;;;10.10;;
75209;SDS011;63796;53.136;14.882;2024-02-28T02:18:10;23.20;;;9.70;;
75209;SDS011;63796;53.136;14.882;2024-02-28T02:20:43;23.90;;;9.00;;
75209;SDS011;63796;53.136;14.882;2024-02-28T02:23:11;25.80;;;10.70;;
75209;SDS011;63796;53.136;14.882;2024-02-28T02:25:46;25.20;;;9.90;;
75209;SDS011;63796;53.136;14.882;2024-02-28T02:28:13;24.30;;;9.60;;
75209;SDS011;63796;53.136;14.882;2024-02-28T02:30:40;25.70;;;9.60;;
75209;SDS011;63796;53.136;14.882;2024-02-28T02:33:08;25.40;;;9.40;;
75209;SDS011;63796;53.136;14.882;2024-02-28T02:35:35;23.00;;;9.50;;
75209;SDS011;63796;53.136;14.882;2024-02-28T02:38:02;22.00;;;8.20;;
75209;SDS011;63796;53.136;14.882;2024-02-28T02:40:28;21.80;;;8.30;;
75209;SDS011;63796;53.136;14.882;2024-02-28T02:42:55;20.00;;;8.50;;
75209;SDS011;63796;53.136;14.882;2024-02-28T02:45:22;22.50;;;7.90;;
75209;SDS011;63796;53.136;14.882;2024-02-28T02:47:49;21.70;;;8.30;;
75209;SDS011;63796;53.136;14.882;2024-02-28T02:50:15;20.70;;;8.10;;
75209;SDS011;63796;53.136;14.882;2024-02-28T02:52:42;22.20;;;8.40;;
75209;SDS011;63796;53.136;14.882;2024-02-28T02:55:09;21.10;;;8.10;;
75209;SDS011;63796;53.136;14.882;2024-02-28T02:57:36;24.30;;;8.30;;
75209;SDS011;63796;53.136;14.882;2024-02-28T03:00:03;18.80;;;7.90;;
75209;SDS011;63796;53.136;14.882;2024-02-28T03:02:30;25.50;;;8.50;;
75209;SDS011;63796;53.136;14.882;2024-02-28T03:04:57;24.20;;;7.70;;
75209;SDS011;63796;53.136;14.882;2024-02-28T03:07:24;27.30;;;8.60;;
75209;SDS011;63796;53.136;14.882;2024-02-28T03:09:50;25.80;;;8.20;;
75209;SDS011;63796;53.136;14.882;2024-02-28T03:12:17;19.50;;;7.30;;
75209;SDS011;63796;53.136;14.882;2024-02-28T03:14:44;21.70;;;7.40;;
75209;SDS011;63796;53.136;14.882;2024-02-28T03:17:11;27.50;;;8.50;;
75209;SDS011;63796;53.136;14.882;2024-02-28T03:19:37;18.70;;;7.60;;
75209;SDS011;63796;53.136;14.882;2024-02-28T03:22:05;24.10;;;7.80;;
75209;SDS011;63796;53.136;14.882;2024-02-28T03:24:31;22.30;;;8.90;;
75209;SDS011;63796;53.136;14.882;2024-02-28T03:27:01;20.50;;;7.70;;
75209;SDS011;63796;53.136;14.882;2024-02-28T03:29:29;16.00;;;6.50;;
75209;SDS011;63796;53.136;14.882;2024-02-28T03:31:55;21.90;;;8.20;;
75209;SDS011;63796;53.136;14.882;2024-02-28T03:34:22;21.10;;;7.50;;
75209;SDS011;63796;53.136;14.882;2024-02-28T03:36:49;21.10;;;7.30;;
75209;SDS011;63796;53.136;14.882;2024-02-28T03:39:16;17.90;;;7.60;;
75209;SDS011;63796;53.136;14.882;2024-02-28T03:41:43;19.80;;;7.20;;
75209;SDS011;63796;53.136;14.882;2024-02-28T03:44:10;19.90;;;7.10;;
75209;SDS011;63796;53.136;14.882;2024-02-28T03:46:37;16.50;;;6.90;;
75209;SDS011;63796;53.136;14.882;2024-02-28T03:49:03;17.20;;;7.10;;
75209;SDS011;63796;53.136;14.882;2024-02-28T03:51:30;17.10;;;6.30;;
75209;SDS011;63796;53.136;14.882;2024-02-28T03:53:57;21.00;;;7.50;;
75209;SDS011;63796;53.136;14.882;2024-02-28T03:56:24;20.10;;;7.30;;
75209;SDS011;63796;53.136;14.882;2024-02-28T03:58:53;16.10;;;6.40;;
75209;SDS011;63796;53.136;14.882;2024-02-28T04:01:19;17.30;;;6.90;;
75209;SDS011;63796;53.136;14.882;2024-02-28T04:03:46;20.90;;;7.50;;
75209;SDS011;63796;53.136;14.882;2024-02-28T04:06:13;19.50;;;7.00;;
75209;SDS011;63796;53.136;14.882;2024-02-28T04:08:43;15.40;;;6.50;;
75209;SDS011;63796;53.136;14.882;2024-02-28T04:11:09;18.80;;;7.00;;
75209;SDS011;63796;53.136;14.882;2024-02-28T04:13:36;20.10;;;7.10;;
75209;SDS011;63796;53.136;14.882;2024-02-28T04:16:03;18.40;;;6.50;;
75209;SDS011;63796;53.136;14.882;2024-02-28T04:18:30;16.10;;;5.60;;
75209;SDS011;63796;53.136;14.882;2024-02-28T04:20:57;19.20;;;7.00;;
75209;SDS011;63796;53.136;14.882;2024-02-28T04:23:24;18.50;;;6.90;;
75209;SDS011;63796;53.136;14.882;2024-02-28T04:25:50;21.30;;;6.70;;
75209;SDS011;63796;53.136;14.882;2024-02-28T04:28:17;22.90;;;7.40;;
75209;SDS011;63796;53.136;14.882;2024-02-28T04:30:44;21.50;;;7.70;;
75209;SDS011;63796;53.136;14.882;2024-02-28T04:33:11;22.60;;;8.50;;
75209;SDS011;63796;53.136;14.882;2024-02-28T04:35:38;22.50;;;8.40;;
75209;SDS011;63796;53.136;14.882;2024-02-28T04:38:04;19.90;;;8.60;;
75209;SDS011;63796;53.136;14.882;2024-02-28T04:40:31;17.70;;;7.70;;
75209;SDS011;63796;53.136;14.882;2024-02-28T04:42:58;15.80;;;7.70;;
75209;SDS011;63796;53.136;14.882;2024-02-28T04:45:24;14.90;;;7.10;;
75209;SDS011;63796;53.136;14.882;2024-02-28T04:47:51;17.40;;;7.90;;
75209;SDS011;63796;53.136;14.882;2024-02-28T04:50:22;21.90;;;8.70;;
75209;SDS011;63796;53.136;14.882;2024-02-28T04:52:49;23.20;;;9.40;;
75209;SDS011;63796;53.136;14.882;2024-02-28T04:55:15;27.60;;;10.10;;
75209;SDS011;63796;53.136;14.882;2024-02-28T04:57:42;29.00;;;11.10;;
75209;SDS011;63796;53.136;14.882;2024-02-28T05:00:09;30.40;;;11.50;;
75209;SDS011;63796;53.136;14.882;2024-02-28T05:02:36;26.80;;;10.10;;
75209;SDS011;63796;53.136;14.882;2024-02-28T05:05:03;23.10;;;9.70;;
75209;SDS011;63796;53.136;14.882;2024-02-28T05:07:30;25.40;;;9.70;;
75209;SDS011;63796;53.136;14.882;2024-02-28T05:09:56;23.60;;;9.80;;
75209;SDS011;63796;53.136;14.882;2024-02-28T05:12:23;25.10;;;9.20;;
75209;SDS011;63796;53.136;14.882;2024-02-28T05:14:50;29.20;;;9.60;;
75209;SDS011;63796;53.136;14.882;2024-02-28T05:17:20;35.60;;;10.30;;
75209;SDS011;63796;53.136;14.882;2024-02-28T05:19:47;36.80;;;12.70;;
75209;SDS011;63796;53.136;14.882;2024-02-28T05:22:14;44.20;;;12.30;;
75209;SDS011;63796;53.136;14.882;2024-02-28T05:24:41;56.50;;;13.10;;
75209;SDS011;63796;53.136;14.882;2024-02-28T05:27:10;64.70;;;16.40;;
75209;SDS011;63796;53.136;14.882;2024-02-28T05:29:36;91.10;;;18.40;;
75209;SDS011;63796;53.136;14.882;2024-02-28T05:32:03;117.30;;;22.40;;
75209;SDS011;63796;53.136;14.882;2024-02-28T05:34:30;131.40;;;24.70;;
75209;SDS011;63796;53.136;14.882;2024-02-28T05:36:57;146.70;;;24.90;;
75209;SDS011;63796;53.136;14.882;2024-02-28T05:39:24;129.80;;;22.50;;
75209;SDS011;63796;53.136;14.882;2024-02-28T05:41:51;146.20;;;23.10;;
75209;SDS011;63796;53.136;14.882;2024-02-28T05:44:17;137.50;;;24.10;;
75209;SDS011;63796;53.136;14.882;2024-02-28T05:46:44;149.90;;;25.00;;
75209;SDS011;63796;53.136;14.882;2024-02-28T05:49:11;130.90;;;23.80;;
75209;SDS011;63796;53.136;14.882;2024-02-28T05:51:37;146.50;;;23.90;;
75209;SDS011;63796;53.136;14.882;2024-02-28T05:54:04;132.00;;;22.50;;
75209;SDS011;63796;53.136;14.882;2024-02-28T05:56:31;117.60;;;20.90;;
75209;SDS011;63796;53.136;14.882;2024-02-28T05:58:58;84.70;;;16.70;;
75209;SDS011;63796;53.136;14.882;2024-02-28T06:01:24;63.20;;;13.40;;
75209;SDS011;63796;53.136;14.882;2024-02-28T06:03:51;49.80;;;12.00;;
75209;SDS011;63796;53.136;14.882;2024-02-28T06:06:18;40.90;;;11.20;;
75209;SDS011;63796;53.136;14.882;2024-02-28T06:08:45;27.90;;;8.60;;
75209;SDS011;63796;53.136;14.882;2024-02-28T06:11:12;24.00;;;6.70;;
75209;SDS011;63796;53.136;14.882;2024-02-28T06:13:42;18.30;;;6.60;;
75209;SDS011;63796;53.136;14.882;2024-02-28T06:16:15;20.70;;;6.60;;
75209;SDS011;63796;53.136;14.882;2024-02-28T06:18:42;16.10;;;6.10;;
75209;SDS011;63796;53.136;14.882;2024-02-28T06:21:09;14.60;;;5.70;;
75209;SDS011;63796;53.136;14.882;2024-02-28T06:23:36;7.50;;;3.60;;
75209;SDS011;63796;53.136;14.882;2024-02-28T06:26:03;7.30;;;3.60;;
75209;SDS011;63796;53.136;14.882;2024-02-28T06:28:29;7.40;;;4.00;;
75209;SDS011;63796;53.136;14.882;2024-02-28T06:30:56;8.30;;;4.10;;
75209;SDS011;63796;53.136;14.882;2024-02-28T06:33:23;9.20;;;4.10;;
75209;SDS011;63796;53.136;14.882;2024-02-28T06:35:50;11.90;;;4.70;;
75209;SDS011;63796;53.136;14.882;2024-02-28T06:38:17;10.70;;;4.60;;
75209;SDS011;63796;53.136;14.882;2024-02-28T06:40:44;8.50;;;4.20;;
75209;SDS011;63796;53.136;14.882;2024-02-28T06:43:10;10.40;;;4.30;;
75209;SDS011;63796;53.136;14.882;2024-02-28T06:45:37;8.00;;;3.80;;
75209;SDS011;63796;53.136;14.882;2024-02-28T06:48:05;8.60;;;4.10;;
75209;SDS011;63796;53.136;14.882;2024-02-28T06:50:32;7.20;;;4.00;;
75209;SDS011;63796;53.136;14.882;2024-02-28T06:52:58;8.20;;;4.00;;
75209;SDS011;63796;53.136;14.882;2024-02-28T06:55:25;10.40;;;4.60;;
75209;SDS011;63796;53.136;14.882;2024-02-28T06:57:52;9.10;;;6.20;;
75209;SDS011;63796;53.136;14.882;2024-02-28T07:00:19;9.80;;;4.80;;
75209;SDS011;63796;53.136;14.882;2024-02-28T07:02:46;8.20;;;4.20;;
75209;SDS011;63796;53.136;14.882;2024-02-28T07:05:13;9.00;;;4.50;;
75209;SDS011;63796;53.136;14.882;2024-02-28T07:07:40;12.20;;;5.30;;
75209;SDS011;63796;53.136;14.882;2024-02-28T07:10:07;11.10;;;4.70;;
75209;SDS011;63796;53.136;14.882;2024-02-28T07:12:34;8.00;;;4.60;;
75209;SDS011;63796;53.136;14.882;2024-02-28T07:15:01;8.00;;;4.60;;
75209;SDS011;63796;53.136;14.882;2024-02-28T07:17:29;10.40;;;5.20;;
75209;SDS011;63796;53.136;14.882;2024-02-28T07:19:56;11.00;;;4.90;;
75209;SDS011;63796;53.136;14.882;2024-02-28T07:22:23;11.50;;;4.90;;
75209;SDS011;63796;53.136;14.882;2024-02-28T07:24:50;10.20;;;4.50;;
75209;SDS011;63796;53.136;14.882;2024-02-28T07:27:17;10.30;;;5.10;;
75209;SDS011;63796;53.136;14.882;2024-02-28T07:29:43;16.10;;;5.60;;
75209;SDS011;63796;53.136;14.882;2024-02-28T07:32:10;12.90;;;5.70;;
75209;SDS011;63796;53.136;14.882;2024-02-28T07:34:37;10.40;;;6.10;;
75209;SDS011;63796;53.136;14.882;2024-02-28T07:37:03;14.40;;;6.10;;
75209;SDS011;63796;53.136;14.882;2024-02-28T07:39:31;10.30;;;6.30;;
75209;SDS011;63796;53.136;14.882;2024-02-28T07:41:57;19.80;;;8.30;;
75209;SDS011;63796;53.136;14.882;2024-02-28T07:44:24;18.40;;;7.60;;
75209;SDS011;63796;53.136;14.882;2024-02-28T07:46:51;13.30;;;6.40;;
75209;SDS011;63796;53.136;14.882;2024-02-28T07:49:18;21.80;;;9.20;;
75209;SDS011;63796;53.136;14.882;2024-02-28T07:51:45;22.40;;;7.90;;
75209;SDS011;63796;53.136;14.882;2024-02-28T07:54:12;16.40;;;7.20;;
75209;SDS011;63796;53.136;14.882;2024-02-28T07:56:39;14.80;;;6.80;;
75209;SDS011;63796;53.136;14.882;2024-02-28T07:59:06;14.00;;;6.30;;
75209;SDS011;63796;53.136;14.882;2024-02-28T08:01:33;18.20;;;6.80;;
75209;SDS011;63796;53.136;14.882;2024-02-28T08:04:00;11.00;;;6.20;;
75209;SDS011;63796;53.136;14.882;2024-02-28T08:06:28;13.10;;;7.00;;
75209;SDS011;63796;53.136;14.882;2024-02-28T08:08:56;14.50;;;7.00;;
75209;SDS011;63796;53.136;14.882;2024-02-28T08:11:22;20.00;;;8.40;;
75209;SDS011;63796;53.136;14.882;2024-02-28T08:13:50;15.60;;;7.50;;
75209;SDS011;63796;53.136;14.882;2024-02-28T08:16:17;13.20;;;6.80;;
75209;SDS011;63796;53.136;14.882;2024-02-28T08:18:43;13.30;;;6.60;;
75209;SDS011;63796;53.136;14.882;2024-02-28T08:21:10;17.60;;;6.90;;
75209;SDS011;63796;53.136;14.882;2024-02-28T08:23:38;17.10;;;7.30;;
75209;SDS011;63796;53.136;14.882;2024-02-28T08:26:04;17.90;;;7.80;;
75209;SDS011;63796;53.136;14.882;2024-02-28T08:28:31;13.20;;;7.10;;
75209;SDS011;63796;53.136;14.882;2024-02-28T08:30:58;13.70;;;6.50;;
75209;SDS011;63796;53.136;14.882;2024-02-28T08:33:24;15.60;;;6.50;;
75209;SDS011;63796;53.136;14.882;2024-02-28T08:35:51;14.10;;;6.90;;
75209;SDS011;63796;53.136;14.882;2024-02-28T08:38:19;12.60;;;6.30;;
75209;SDS011;63796;53.136;14.882;2024-02-28T08:40:45;13.10;;;6.60;;
75209;SDS011;63796;53.136;14.882;2024-02-28T08:43:12;16.20;;;6.40;;
75209;SDS011;63796;53.136;14.882;2024-02-28T08:45:40;19.70;;;7.30;;
75209;SDS011;63796;53.136;14.882;2024-02-28T08:48:07;13.80;;;6.80;;
75209;SDS011;63796;53.136;14.882;2024-02-28T08:50:34;14.20;;;6.70;;
75209;SDS011;63796;53.136;14.882;2024-02-28T08:53:02;12.90;;;5.90;;
75209;SDS011;63796;53.136;14.882;2024-02-28T08:55:29;11.80;;;6.20;;
75209;SDS011;63796;53.136;14.882;2024-02-28T08:57:56;13.00;;;6.70;;
75209;SDS011;63796;53.136;14.882;2024-02-28T09:00:23;15.20;;;7.30;;
75209;SDS011;63796;53.136;14.882;2024-02-28T09:02:50;12.00;;;7.00;;
75209;SDS011;63796;53.136;14.882;2024-02-28T09:05:17;12.80;;;6.70;;
75209;SDS011;63796;53.136;14.882;2024-02-28T09:07:45;12.60;;;6.70;;
75209;SDS011;63796;53.136;14.882;2024-02-28T09:10:12;12.80;;;6.40;;
75209;SDS011;63796;53.136;14.882;2024-02-28T09:12:39;11.30;;;5.90;;
75209;SDS011;63796;53.136;14.882;2024-02-28T09:15:06;12.20;;;6.30;;
75209;SDS011;63796;53.136;14.882;2024-02-28T09:17:33;9.90;;;6.10;;
75209;SDS011;63796;53.136;14.882;2024-02-28T09:20:00;8.30;;;5.20;;
75209;SDS011;63796;53.136;14.882;2024-02-28T09:22:27;10.50;;;5.70;;
75209;SDS011;63796;53.136;14.882;2024-02-28T09:24:54;9.10;;;5.00;;
75209;SDS011;63796;53.136;14.882;2024-02-28T09:27:21;8.80;;;5.10;;
75209;SDS011;63796;53.136;14.882;2024-02-28T09:29:48;8.90;;;5.30;;
75209;SDS011;63796;53.136;14.882;2024-02-28T09:32:14;10.80;;;5.60;;
75209;SDS011;63796;53.136;14.882;2024-02-28T09:34:41;8.30;;;4.80;;
75209;SDS011;63796;53.136;14.882;2024-02-28T09:37:08;8.90;;;4.60;;
75209;SDS011;63796;53.136;14.882;2024-02-28T09:39:38;6.80;;;3.70;;
75209;SDS011;63796;53.136;14.882;2024-02-28T09:42:06;7.70;;;4.50;;
75209;SDS011;63796;53.136;14.882;2024-02-28T09:44:37;7.90;;;4.30;;
75209;SDS011;63796;53.136;14.882;2024-02-28T09:47:03;8.30;;;4.60;;
75209;SDS011;63796;53.136;14.882;2024-02-28T09:49:31;8.60;;;4.50;;
75209;SDS011;63796;53.136;14.882;2024-02-28T09:51:59;8.00;;;3.80;;
75209;SDS011;63796;53.136;14.882;2024-02-28T09:54:26;10.00;;;5.30;;
75209;SDS011;63796;53.136;14.882;2024-02-28T09:56:53;11.40;;;6.00;;
75209;SDS011;63796;53.136;14.882;2024-02-28T09:59:23;10.30;;;6.00;;
75209;SDS011;63796;53.136;14.882;2024-02-28T10:01:59;11.20;;;5.90;;
75209;SDS011;63796;53.136;14.882;2024-02-28T10:04:27;10.80;;;5.80;;
75209;SDS011;63796;53.136;14.882;2024-02-28T10:06:56;10.40;;;6.60;;
75209;SDS011;63796;53.136;14.882;2024-02-28T10:09:23;12.90;;;6.50;;
75209;SDS011;63796;53.136;14.882;2024-02-28T10:11:51;11.40;;;5.90;;
75209;SDS011;63796;53.136;14.882;2024-02-28T10:14:18;12.20;;;6.20;;
75209;SDS011;63796;53.136;14.882;2024-02-28T10:16:46;10.80;;;6.20;;
75209;SDS011;63796;53.136;14.882;2024-02-28T10:19:13;18.30;;;8.10;;
75209;SDS011;63796;53.136;14.882;2024-02-28T10:21:39;10.90;;;5.70;;
75209;SDS011;63796;53.136;14.882;2024-02-28T10:24:06;10.00;;;5.70;;
75209;SDS011;63796;53.136;14.882;2024-02-28T10:26:42;9.80;;;5.60;;
75209;SDS011;63796;53.136;14.882;2024-02-28T10:29:08;10.80;;;5.70;;
75209;SDS011;63796;53.136;14.882;2024-02-28T10:31:38;8.90;;;5.10;;
75209;SDS011;63796;53.136;14.882;2024-02-28T10:34:06;10.70;;;5.90;;
75209;SDS011;63796;53.136;14.882;2024-02-28T10:36:34;11.10;;;5.70;;
75209;SDS011;63796;53.136;14.882;2024-02-28T10:39:01;9.00;;;4.90;;
75209;SDS011;63796;53.136;14.882;2024-02-28T10:41:28;10.10;;;4.70;;
75209;SDS011;63796;53.136;14.882;2024-02-28T10:43:56;8.80;;;4.60;;
75209;SDS011;63796;53.136;14.882;2024-02-28T10:46:23;8.90;;;4.50;;
75209;SDS011;63796;53.136;14.882;2024-02-28T10:48:52;10.40;;;4.50;;
75209;SDS011;63796;53.136;14.882;2024-02-28T10:51:23;9.30;;;5.10;;
75209;SDS011;63796;53.136;14.882;2024-02-28T10:54:08;10.10;;;4.90;;
75209;SDS011;63796;53.136;14.882;2024-02-28T10:56:36;9.80;;;4.80;;
75209;SDS011;63796;53.136;14.882;2024-02-28T10:59:06;9.00;;;4.40;;
75209;SDS011;63796;53.136;14.882;2024-02-28T11:01:43;17.20;;;5.10;;
75209;SDS011;63796;53.136;14.882;2024-02-28T11:04:13;7.80;;;3.90;;
75209;SDS011;63796;53.136;14.882;2024-02-28T11:06:53;8.00;;;3.50;;
75209;SDS011;63796;53.136;14.882;2024-02-28T11:09:23;6.60;;;3.10;;
75209;SDS011;63796;53.136;14.882;2024-02-28T11:11:50;6.40;;;3.20;;
75209;SDS011;63796;53.136;14.882;2024-02-28T11:14:18;7.90;;;3.80;;
75209;SDS011;63796;53.136;14.882;2024-02-28T11:17:02;6.50;;;3.30;;
75209;SDS011;63796;53.136;14.882;2024-02-28T11:19:30;6.30;;;3.00;;
75209;SDS011;63796;53.136;14.882;2024-02-28T11:21:59;5.60;;;3.20;;
75209;SDS011;63796;53.136;14.882;2024-02-28T11:24:31;5.70;;;2.80;;
75209;SDS011;63796;53.136;14.882;2024-02-28T11:26:58;6.20;;;3.30;;
75209;SDS011;63796;53.136;14.882;2024-02-28T11:29:26;5.50;;;2.80;;
75209;SDS011;63796;53.136;14.882;2024-02-28T11:31:55;6.20;;;2.90;;
75209;SDS011;63796;53.136;14.882;2024-02-28T11:34:21;7.30;;;3.30;;
75209;SDS011;63796;53.136;14.882;2024-02-28T11:36:49;7.40;;;3.80;;
75209;SDS011;63796;53.136;14.882;2024-02-28T11:39:17;9.80;;;3.90;;
75209;SDS011;63796;53.136;14.882;2024-02-28T11:41:44;6.70;;;3.40;;
75209;SDS011;63796;53.136;14.882;2024-02-28T11:44:15;7.20;;;3.70;;
75209;SDS011;63796;53.136;14.882;2024-02-28T11:46:46;6.30;;;3.50;;
75209;SDS011;63796;53.136;14.882;2024-02-28T11:49:13;6.80;;;3.00;;
75209;SDS011;63796;53.136;14.882;2024-02-28T11:51:44;5.50;;;3.10;;
75209;SDS011;63796;53.136;14.882;2024-02-28T11:54:11;7.60;;;4.10;;
75209;SDS011;63796;53.136;14.882;2024-02-28T11:56:39;5.80;;;2.90;;
75209;SDS011;63796;53.136;14.882;2024-02-28T11:59:06;6.80;;;3.40;;
75209;SDS011;63796;53.136;14.882;2024-02-28T12:01:38;7.10;;;3.70;;
75209;SDS011;63796;53.136;14.882;2024-02-28T12:04:06;6.20;;;3.30;;
75209;SDS011;63796;53.136;14.882;2024-02-28T12:06:42;6.00;;;3.40;;
75209;SDS011;63796;53.136;14.882;2024-02-28T12:09:11;10.00;;;4.30;;
75209;SDS011;63796;53.136;14.882;2024-02-28T12:11:50;8.50;;;4.40;;
75209;SDS011;63796;53.136;14.882;2024-02-28T12:14:17;8.80;;;4.40;;
75209;SDS011;63796;53.136;14.882;2024-02-28T12:16:43;7.00;;;3.70;;
75209;SDS011;63796;53.136;14.882;2024-02-28T12:19:12;6.40;;;3.20;;
75209;SDS011;63796;53.136;14.882;2024-02-28T12:21:40;8.20;;;4.20;;
75209;SDS011;63796;53.136;14.882;2024-02-28T12:24:08;6.60;;;3.60;;
75209;SDS011;63796;53.136;14.882;2024-02-28T12:26:38;7.00;;;3.70;;
75209;SDS011;63796;53.136;14.882;2024-02-28T12:29:06;9.20;;;4.30;;
75209;SDS011;63796;53.136;14.882;2024-02-28T12:31:33;9.90;;;3.90;;
75209;SDS011;63796;53.136;14.882;2024-02-28T12:34:00;7.70;;;3.40;;
75209;SDS011;63796;53.136;14.882;2024-02-28T12:36:26;5.80;;;3.00;;
75209;SDS011;63796;53.136;14.882;2024-02-28T12:38:54;5.50;;;3.10;;
75209;SDS011;63796;53.136;14.882;2024-02-28T12:41:21;6.60;;;3.10;;
75209;SDS011;63796;53.136;14.882;2024-02-28T12:43:47;5.30;;;2.90;;
75209;SDS011;63796;53.136;14.882;2024-02-28T12:46:14;6.30;;;2.90;;
75209;SDS011;63796;53.136;14.882;2024-02-28T12:48:41;11.10;;;4.20;;
75209;SDS011;63796;53.136;14.882;2024-02-28T12:51:10;10.40;;;5.00;;
75209;SDS011;63796;53.136;14.882;2024-02-28T12:53:37;9.40;;;4.00;;
75209;SDS011;63796;53.136;14.882;2024-02-28T12:56:04;4.50;;;2.50;;
75209;SDS011;63796;53.136;14.882;2024-02-28T12:58:32;12.00;;;4.50;;
75209;SDS011;63796;53.136;14.882;2024-02-28T13:00:58;5.40;;;2.80;;
75209;SDS011;63796;53.136;14.882;2024-02-28T13:03:25;4.30;;;2.70;;
75209;SDS011;63796;53.136;14.882;2024-02-28T13:05:52;5.20;;;2.50;;
75209;SDS011;63796;53.136;14.882;2024-02-28T13:08:19;5.40;;;2.80;;
75209;SDS011;63796;53.136;14.882;2024-02-28T13:10:46;6.50;;;3.10;;
75209;SDS011;63796;53.136;14.882;2024-02-28T13:13:12;9.80;;;5.00;;
75209;SDS011;63796;53.136;14.882;2024-02-28T13:15:40;10.80;;;4.80;;
75209;SDS011;63796;53.136;14.882;2024-02-28T13:18:07;12.40;;;5.50;;
75209;SDS011;63796;53.136;14.882;2024-02-28T13:20:35;10.50;;;4.30;;
75209;SDS011;63796;53.136;14.882;2024-02-28T13:23:04;7.00;;;3.60;;
75209;SDS011;63796;53.136;14.882;2024-02-28T13:25:31;9.70;;;4.30;;
75209;SDS011;63796;53.136;14.882;2024-02-28T13:27:57;6.70;;;3.30;;
75209;SDS011;63796;53.136;14.882;2024-02-28T13:30:24;6.10;;;3.50;;
75209;SDS011;63796;53.136;14.882;2024-02-28T13:32:51;8.50;;;3.80;;
75209;SDS011;63796;53.136;14.882;2024-02-28T13:35:18;6.40;;;2.70;;
75209;SDS011;63796;53.136;14.882;2024-02-28T13:37:45;8.80;;;3.90;;
75209;SDS011;63796;53.136;14.882;2024-02-28T13:40:12;6.30;;;3.50;;
75209;SDS011;63796;53.136;14.882;2024-02-28T13:42:39;9.80;;;4.40;;
75209;SDS011;63796;53.136;14.882;2024-02-28T13:45:06;10.80;;;5.40;;
75209;SDS011;63796;53.136;14.882;2024-02-28T13:47:33;9.10;;;5.30;;
75209;SDS011;63796;53.136;14.882;2024-02-28T13:50:01;8.00;;;4.00;;
75209;SDS011;63796;53.136;14.882;2024-02-28T13:52:28;9.80;;;5.40;;
75209;SDS011;63796;53.136;14.882;2024-02-28T13:54:55;12.40;;;5.80;;
75209;SDS011;63796;53.136;14.882;2024-02-28T13:57:22;11.80;;;6.10;;
75209;SDS011;63796;53.136;14.882;2024-02-28T13:59:49;12.90;;;6.20;;
75209;SDS011;63796;53.136;14.882;2024-02-28T14:02:22;9.30;;;4.30;;
75209;SDS011;63796;53.136;14.882;2024-02-28T14:04:54;6.30;;;3.60;;
75209;SDS011;63796;53.136;14.882;2024-02-28T14:07:21;6.60;;;3.40;;
75209;SDS011;63796;53.136;14.882;2024-02-28T14:09:47;4.20;;;2.70;;
75209;SDS011;63796;53.136;14.882;2024-02-28T14:12:14;5.70;;;3.20;;
75209;SDS011;63796;53.136;14.882;2024-02-28T14:14:42;9.00;;;4.70;;
75209;SDS011;63796;53.136;14.882;2024-02-28T14:17:08;17.80;;;7.30;;
75209;SDS011;63796;53.136;14.882;2024-02-28T14:19:39;22.80;;;10.20;;
75209;SDS011;63796;53.136;14.882;2024-02-28T14:22:07;33.00;;;11.50;;
75209;SDS011;63796;53.136;14.882;2024-02-28T14:24:36;26.50;;;11.10;;
75209;SDS011;63796;53.136;14.882;2024-02-28T14:27:05;22.50;;;10.40;;